sensor_id;sensor_type;location;lat;lon;timestamp;P1;durP1;ratioP1;P2;durP2;ratioP2
6436;SDS011;3251;53.550;9.918;2023-06-19T09:09:34;27.67;;;10.60;;
6436;SDS011;3251;53.550;9.918;2023-06-19T09:12:02;11.80;;;10.90;;
6436;SDS011;3251;53.550;9.918;2023-06-19T09:14:33;11.90;;;10.87;;
6436;SDS011;3251;53.550;9.918;2023-06-19T09:17:00;13.67;;;10.93;;
6436;SDS011;3251;53.550;9.918;2023-06-19T09:19:27;11.47;;;10.27;;
6436;SDS011;3251;53.550;9.918;2023-06-19T09:21:53;10.87;;;9.97;;
6436;SDS011;3251;53.550;9.918;2023-06-19T09:24:19;13.43;;;10.87;;
6436;SDS011;3251;53.550;9.918;2023-06-19T09:26:46;11.00;;;10.00;;
6436;SDS011;3251;53.550;9.918;2023-06-19T09:29:15;12.57;;;11.20;;
6436;SDS011;3251;53.550;9.918;2023-06-19T09:31:43;13.40;;;12.10;;
6436;SDS011;3251;53.550;9.918;2023-06-19T09:34:09;12.60;;;11.50;;
6436;SDS011;3251;53.550;9.918;2023-06-19T09:36:36;12.37;;;11.17;;
6436;SDS011;3251;53.550;9.918;2023-06-19T09:39:03;13.10;;;11.80;;
6436;SDS011;3251;53.550;9.918;2023-06-19T09:41:29;19.03;;;12.20;;
6436;SDS011;3251;53.550;9.918;2023-06-19T09:43:56;12.67;;;11.50;;
6436;SDS011;3251;53.550;9.918;2023-06-19T09:46:29;17.30;;;12.30;;
6436;SDS011;3251;53.550;9.918;2023-06-19T09:48:59;14.73;;;13.33;;
6436;SDS011;3251;53.550;9.918;2023-06-19T09:51:31;13.77;;;12.40;;
6436;SDS011;3251;53.550;9.918;2023-06-19T09:53:58;14.40;;;13.00;;
6436;SDS011;3251;53.550;9.918;2023-06-19T09:56:27;14.50;;;13.00;;
6436;SDS011;3251;53.550;9.918;2023-06-19T09:58:54;13.53;;;12.00;;
6436;SDS011;3251;53.550;9.918;2023-06-19T10:01:20;17.27;;;15.47;;
6436;SDS011;3251;53.550;9.918;2023-06-19T10:03:47;19.57;;;13.30;;
6436;SDS011;3251;53.550;9.918;2023-06-19T10:06:14;16.63;;;13.40;;
6436;SDS011;3251;53.550;9.918;2023-06-19T10:08:41;14.33;;;13.03;;
6436;SDS011;3251;53.550;9.918;2023-06-19T10:11:08;16.00;;;11.50;;
6436;SDS011;3251;53.550;9.918;2023-06-19T10:13:36;15.50;;;14.10;;
6436;SDS011;3251;53.550;9.918;2023-06-19T10:16:04;12.70;;;11.43;;
6436;SDS011;3251;53.550;9.918;2023-06-19T10:18:31;18.77;;;12.33;;
6436;SDS011;3251;53.550;9.918;2023-06-19T10:20:57;15.17;;;11.60;;
6436;SDS011;3251;53.550;9.918;2023-06-19T10:23:24;12.90;;;11.73;;
6436;SDS011;3251;53.550;9.918;2023-06-19T10:28:32;12.97;;;11.77;;
6436;SDS011;3251;53.550;9.918;2023-06-19T10:31:08;14.10;;;12.70;;
6436;SDS011;3251;53.550;9.918;2023-06-19T10:33:36;13.97;;;12.50;;
6436;SDS011;3251;53.550;9.918;2023-06-19T10:36:18;15.43;;;13.93;;
6436;SDS011;3251;53.550;9.918;2023-06-19T10:38:44;15.93;;;14.43;;
6436;SDS011;3251;53.550;9.918;2023-06-19T10:41:19;14.50;;;13.20;;
6436;SDS011;3251;53.550;9.918;2023-06-19T10:43:56;13.23;;;11.83;;
6436;SDS011;3251;53.550;9.918;2023-06-19T10:46:23;12.73;;;11.53;;
6436;SDS011;3251;53.550;9.918;2023-06-19T10:48:50;13.77;;;12.47;;
6436;SDS011;3251;53.550;9.918;2023-06-19T10:51:19;19.70;;;13.00;;
6436;SDS011;3251;53.550;9.918;2023-06-19T10:53:45;12.90;;;11.43;;
6436;SDS011;3251;53.550;9.918;2023-06-19T10:56:11;17.83;;;12.60;;
6436;SDS011;3251;53.550;9.918;2023-06-19T10:58:37;15.10;;;11.00;;
6436;SDS011;3251;53.550;9.918;2023-06-19T11:01:04;11.07;;;9.57;;
6436;SDS011;3251;53.550;9.918;2023-06-19T11:03:31;12.30;;;10.57;;
6436;SDS011;3251;53.550;9.918;2023-06-19T11:05:57;13.27;;;9.93;;
6436;SDS011;3251;53.550;9.918;2023-06-19T11:08:23;13.10;;;9.40;;
6436;SDS011;3251;53.550;9.918;2023-06-19T11:10:50;9.10;;;8.50;;
6436;SDS011;3251;53.550;9.918;2023-06-19T11:13:17;9.10;;;8.40;;
6436;SDS011;3251;53.550;9.918;2023-06-19T11:15:44;10.50;;;9.57;;
6436;SDS011;3251;53.550;9.918;2023-06-19T11:18:10;9.83;;;8.60;;
6436;SDS011;3251;53.550;9.918;2023-06-19T11:20:46;9.13;;;8.33;;
6436;SDS011;3251;53.550;9.918;2023-06-19T11:23:14;10.07;;;8.70;;
6436;SDS011;3251;53.550;9.918;2023-06-19T11:25:41;9.37;;;8.63;;
6436;SDS011;3251;53.550;9.918;2023-06-19T11:28:14;16.10;;;12.27;;
6436;SDS011;3251;53.550;9.918;2023-06-19T11:30:42;12.80;;;10.70;;
6436;SDS011;3251;53.550;9.918;2023-06-19T11:33:18;10.30;;;9.27;;
6436;SDS011;3251;53.550;9.918;2023-06-19T11:35:51;9.70;;;8.00;;
6436;SDS011;3251;53.550;9.918;2023-06-19T11:38:19;8.93;;;8.00;;
6436;SDS011;3251;53.550;9.918;2023-06-19T11:40:46;9.70;;;8.37;;
6436;SDS011;3251;53.550;9.918;2023-06-19T11:43:23;8.63;;;7.93;;
6436;SDS011;3251;53.550;9.918;2023-06-19T11:45:49;10.00;;;9.00;;
6436;SDS011;3251;53.550;9.918;2023-06-19T11:48:25;8.60;;;7.77;;
6436;SDS011;3251;53.550;9.918;2023-06-19T11:50:53;8.53;;;7.80;;
6436;SDS011;3251;53.550;9.918;2023-06-19T11:53:20;10.40;;;8.00;;
6436;SDS011;3251;53.550;9.918;2023-06-19T11:55:46;9.57;;;8.07;;
6436;SDS011;3251;53.550;9.918;2023-06-19T11:58:12;8.70;;;8.00;;
6436;SDS011;3251;53.550;9.918;2023-06-19T12:00:40;19.73;;;16.37;;
6436;SDS011;3251;53.550;9.918;2023-06-19T12:03:06;10.10;;;8.93;;
6436;SDS011;3251;53.550;9.918;2023-06-19T12:05:32;11.20;;;10.10;;
6436;SDS011;3251;53.550;9.918;2023-06-19T12:07:59;9.33;;;8.40;;
6436;SDS011;3251;53.550;9.918;2023-06-19T12:10:27;10.83;;;9.23;;
6436;SDS011;3251;53.550;9.918;2023-06-19T12:12:53;8.40;;;7.80;;
6436;SDS011;3251;53.550;9.918;2023-06-19T12:15:20;7.83;;;7.13;;
6436;SDS011;3251;53.550;9.918;2023-06-19T12:17:46;8.20;;;7.57;;
6436;SDS011;3251;53.550;9.918;2023-06-19T12:20:12;9.83;;;7.80;;
6436;SDS011;3251;53.550;9.918;2023-06-19T12:22:39;8.50;;;7.90;;
6436;SDS011;3251;53.550;9.918;2023-06-19T12:25:05;9.43;;;8.50;;
6436;SDS011;3251;53.550;9.918;2023-06-19T12:27:31;8.20;;;7.23;;
6436;SDS011;3251;53.550;9.918;2023-06-19T12:29:58;6.93;;;6.33;;
6436;SDS011;3251;53.550;9.918;2023-06-19T12:32:24;8.33;;;7.63;;
6436;SDS011;3251;53.550;9.918;2023-06-19T12:34:50;7.70;;;7.07;;
6436;SDS011;3251;53.550;9.918;2023-06-19T12:37:19;10.40;;;6.43;;
6436;SDS011;3251;53.550;9.918;2023-06-19T12:39:45;10.00;;;7.10;;
6436;SDS011;3251;53.550;9.918;2023-06-19T12:42:12;8.17;;;6.63;;
6436;SDS011;3251;53.550;9.918;2023-06-19T12:44:41;6.90;;;6.30;;
6436;SDS011;3251;53.550;9.918;2023-06-19T12:47:08;7.53;;;6.83;;
6436;SDS011;3251;53.550;9.918;2023-06-19T12:49:34;5.87;;;5.47;;
6436;SDS011;3251;53.550;9.918;2023-06-19T12:52:00;7.33;;;6.27;;
6436;SDS011;3251;53.550;9.918;2023-06-19T12:54:29;6.80;;;6.20;;
6436;SDS011;3251;53.550;9.918;2023-06-19T12:56:55;6.40;;;5.90;;
6436;SDS011;3251;53.550;9.918;2023-06-19T12:59:21;6.50;;;6.00;;
6436;SDS011;3251;53.550;9.918;2023-06-19T13:01:48;8.63;;;7.97;;
6436;SDS011;3251;53.550;9.918;2023-06-19T13:04:14;9.00;;;7.07;;
6436;SDS011;3251;53.550;9.918;2023-06-19T13:06:40;8.00;;;7.20;;
6436;SDS011;3251;53.550;9.918;2023-06-19T13:09:06;6.80;;;6.20;;
6436;SDS011;3251;53.550;9.918;2023-06-19T13:11:32;7.00;;;6.50;;
6436;SDS011;3251;53.550;9.918;2023-06-19T13:14:00;6.67;;;6.07;;
6436;SDS011;3251;53.550;9.918;2023-06-19T13:16:26;7.83;;;5.77;;
6436;SDS011;3251;53.550;9.918;2023-06-19T13:18:52;6.93;;;5.80;;
6436;SDS011;3251;53.550;9.918;2023-06-19T13:21:18;22.00;;;16.67;;
6436;SDS011;3251;53.550;9.918;2023-06-19T13:23:45;8.53;;;7.00;;
6436;SDS011;3251;53.550;9.918;2023-06-19T13:26:14;9.93;;;6.07;;
6436;SDS011;3251;53.550;9.918;2023-06-19T13:28:40;12.77;;;7.10;;
6436;SDS011;3251;53.550;9.918;2023-06-19T13:31:07;6.67;;;5.63;;
6436;SDS011;3251;53.550;9.918;2023-06-19T13:33:33;8.20;;;5.97;;
6436;SDS011;3251;53.550;9.918;2023-06-19T13:35:59;8.23;;;7.27;;
6436;SDS011;3251;53.550;9.918;2023-06-19T13:38:25;9.13;;;6.20;;
6436;SDS011;3251;53.550;9.918;2023-06-19T13:40:51;6.37;;;5.77;;
6436;SDS011;3251;53.550;9.918;2023-06-19T13:43:18;6.43;;;6.03;;
6436;SDS011;3251;53.550;9.918;2023-06-19T13:45:45;8.63;;;5.90;;
6436;SDS011;3251;53.550;9.918;2023-06-19T13:48:11;5.70;;;5.20;;
6436;SDS011;3251;53.550;9.918;2023-06-19T13:50:37;5.93;;;5.43;;
6436;SDS011;3251;53.550;9.918;2023-06-19T13:53:03;7.13;;;5.83;;
6436;SDS011;3251;53.550;9.918;2023-06-19T13:55:29;6.40;;;6.00;;
6436;SDS011;3251;53.550;9.918;2023-06-19T13:57:55;11.63;;;6.10;;
6436;SDS011;3251;53.550;9.918;2023-06-19T14:00:22;5.97;;;5.37;;
6436;SDS011;3251;53.550;9.918;2023-06-19T14:02:48;5.47;;;5.07;;
6436;SDS011;3251;53.550;9.918;2023-06-19T14:05:15;7.00;;;5.37;;
6436;SDS011;3251;53.550;9.918;2023-06-19T14:07:41;7.93;;;7.23;;
6436;SDS011;3251;53.550;9.918;2023-06-19T14:10:08;13.20;;;5.13;;
6436;SDS011;3251;53.550;9.918;2023-06-19T14:12:34;7.63;;;5.40;;
6436;SDS011;3251;53.550;9.918;2023-06-19T14:15:00;6.17;;;4.77;;
6436;SDS011;3251;53.550;9.918;2023-06-19T14:17:27;5.07;;;4.57;;
6436;SDS011;3251;53.550;9.918;2023-06-19T14:19:53;7.10;;;6.40;;
6436;SDS011;3251;53.550;9.918;2023-06-19T14:22:21;4.90;;;4.67;;
6436;SDS011;3251;53.550;9.918;2023-06-19T14:24:47;6.83;;;4.90;;
6436;SDS011;3251;53.550;9.918;2023-06-19T14:27:21;8.33;;;5.23;;
6436;SDS011;3251;53.550;9.918;2023-06-19T14:29:47;10.33;;;5.30;;
6436;SDS011;3251;53.550;9.918;2023-06-19T14:32:13;5.47;;;5.10;;
6436;SDS011;3251;53.550;9.918;2023-06-19T14:34:39;4.67;;;4.40;;
6436;SDS011;3251;53.550;9.918;2023-06-19T14:37:05;8.80;;;5.57;;
6436;SDS011;3251;53.550;9.918;2023-06-19T14:39:32;5.40;;;5.20;;
6436;SDS011;3251;53.550;9.918;2023-06-19T14:41:58;4.10;;;3.90;;
6436;SDS011;3251;53.550;9.918;2023-06-19T14:44:24;5.87;;;5.47;;
6436;SDS011;3251;53.550;9.918;2023-06-19T14:47:24;6.03;;;5.57;;
6436;SDS011;3251;53.550;9.918;2023-06-19T14:49:50;8.83;;;6.47;;
6436;SDS011;3251;53.550;9.918;2023-06-19T14:52:18;5.77;;;5.27;;
6436;SDS011;3251;53.550;9.918;2023-06-19T14:54:44;5.70;;;5.30;;
6436;SDS011;3251;53.550;9.918;2023-06-19T14:57:11;7.43;;;4.37;;
6436;SDS011;3251;53.550;9.918;2023-06-19T14:59:38;6.40;;;5.90;;
6436;SDS011;3251;53.550;9.918;2023-06-19T15:02:04;7.13;;;6.47;;
6436;SDS011;3251;53.550;9.918;2023-06-19T15:04:32;8.73;;;7.87;;
6436;SDS011;3251;53.550;9.918;2023-06-19T15:06:58;5.27;;;4.77;;
6436;SDS011;3251;53.550;9.918;2023-06-19T15:09:25;8.30;;;6.00;;
6436;SDS011;3251;53.550;9.918;2023-06-19T15:11:51;5.23;;;4.90;;
6436;SDS011;3251;53.550;9.918;2023-06-19T15:14:18;5.37;;;4.87;;
6436;SDS011;3251;53.550;9.918;2023-06-19T15:16:44;10.00;;;6.00;;
6436;SDS011;3251;53.550;9.918;2023-06-19T15:19:11;8.83;;;5.67;;
6436;SDS011;3251;53.550;9.918;2023-06-19T15:21:37;6.40;;;5.07;;
6436;SDS011;3251;53.550;9.918;2023-06-19T15:24:03;4.87;;;4.43;;
6436;SDS011;3251;53.550;9.918;2023-06-19T15:26:29;5.90;;;4.50;;
6436;SDS011;3251;53.550;9.918;2023-06-19T15:28:55;6.00;;;5.40;;
6436;SDS011;3251;53.550;9.918;2023-06-19T15:31:22;6.17;;;4.77;;
6436;SDS011;3251;53.550;9.918;2023-06-19T15:33:48;5.60;;;5.10;;
6436;SDS011;3251;53.550;9.918;2023-06-19T15:36:15;4.80;;;4.50;;
6436;SDS011;3251;53.550;9.918;2023-06-19T15:38:41;5.63;;;4.90;;
6436;SDS011;3251;53.550;9.918;2023-06-19T15:41:08;9.50;;;4.97;;
6436;SDS011;3251;53.550;9.918;2023-06-19T15:43:34;8.10;;;5.30;;
6436;SDS011;3251;53.550;9.918;2023-06-19T15:46:00;5.43;;;5.00;;
6436;SDS011;3251;53.550;9.918;2023-06-19T15:48:29;4.40;;;4.20;;
6436;SDS011;3251;53.550;9.918;2023-06-19T15:50:55;5.37;;;4.97;;
6436;SDS011;3251;53.550;9.918;2023-06-19T15:53:22;7.10;;;4.10;;
6436;SDS011;3251;53.550;9.918;2023-06-19T15:55:48;7.10;;;5.27;;
6436;SDS011;3251;53.550;9.918;2023-06-19T15:58:14;10.30;;;5.60;;
6436;SDS011;3251;53.550;9.918;2023-06-19T16:00:40;7.73;;;6.30;;
6436;SDS011;3251;53.550;9.918;2023-06-19T16:03:06;6.03;;;5.63;;
6436;SDS011;3251;53.550;9.918;2023-06-19T16:05:32;8.47;;;7.90;;
6436;SDS011;3251;53.550;9.918;2023-06-19T16:07:58;7.70;;;7.20;;
6436;SDS011;3251;53.550;9.918;2023-06-19T16:10:25;9.50;;;7.93;;
6436;SDS011;3251;53.550;9.918;2023-06-19T16:12:51;8.30;;;7.60;;
6436;SDS011;3251;53.550;9.918;2023-06-19T16:15:18;8.20;;;7.40;;
6436;SDS011;3251;53.550;9.918;2023-06-19T16:17:49;6.57;;;6.27;;
6436;SDS011;3251;53.550;9.918;2023-06-19T16:20:17;8.03;;;7.33;;
6436;SDS011;3251;53.550;9.918;2023-06-19T16:22:43;6.73;;;6.43;;
6436;SDS011;3251;53.550;9.918;2023-06-19T16:25:10;8.73;;;8.07;;
6436;SDS011;3251;53.550;9.918;2023-06-19T16:27:36;6.70;;;6.10;;
6436;SDS011;3251;53.550;9.918;2023-06-19T16:30:02;7.40;;;6.90;;
6436;SDS011;3251;53.550;9.918;2023-06-19T16:32:29;6.37;;;5.80;;
6436;SDS011;3251;53.550;9.918;2023-06-19T16:34:56;6.13;;;5.57;;
6436;SDS011;3251;53.550;9.918;2023-06-19T16:37:22;14.63;;;5.40;;
6436;SDS011;3251;53.550;9.918;2023-06-19T16:39:48;8.63;;;5.50;;
6436;SDS011;3251;53.550;9.918;2023-06-19T16:42:14;8.20;;;6.50;;
6436;SDS011;3251;53.550;9.918;2023-06-19T16:44:41;9.10;;;6.13;;
6436;SDS011;3251;53.550;9.918;2023-06-19T16:47:07;6.87;;;6.30;;
6436;SDS011;3251;53.550;9.918;2023-06-19T16:49:33;19.87;;;7.20;;
6436;SDS011;3251;53.550;9.918;2023-06-19T16:51:59;5.87;;;5.47;;
6436;SDS011;3251;53.550;9.918;2023-06-19T16:54:25;6.00;;;5.60;;
6436;SDS011;3251;53.550;9.918;2023-06-19T16:56:51;5.30;;;4.77;;
6436;SDS011;3251;53.550;9.918;2023-06-19T16:59:18;5.80;;;5.30;;
6436;SDS011;3251;53.550;9.918;2023-06-19T17:01:44;7.43;;;4.60;;
6436;SDS011;3251;53.550;9.918;2023-06-19T17:04:10;9.17;;;4.93;;
6436;SDS011;3251;53.550;9.918;2023-06-19T17:06:37;5.13;;;3.40;;
6436;SDS011;3251;53.550;9.918;2023-06-19T17:09:03;4.73;;;4.33;;
6436;SDS011;3251;53.550;9.918;2023-06-19T17:11:29;7.33;;;5.07;;
6436;SDS011;3251;53.550;9.918;2023-06-19T17:13:55;4.97;;;4.57;;
6436;SDS011;3251;53.550;9.918;2023-06-19T17:16:21;4.77;;;4.47;;
6436;SDS011;3251;53.550;9.918;2023-06-19T17:18:47;4.43;;;4.03;;
6436;SDS011;3251;53.550;9.918;2023-06-19T17:21:14;6.13;;;4.60;;
6436;SDS011;3251;53.550;9.918;2023-06-19T17:23:40;4.73;;;4.53;;
6436;SDS011;3251;53.550;9.918;2023-06-19T17:26:06;4.70;;;4.40;;
6436;SDS011;3251;53.550;9.918;2023-06-19T17:28:32;4.90;;;4.60;;
6436;SDS011;3251;53.550;9.918;2023-06-19T17:30:59;5.23;;;4.83;;
6436;SDS011;3251;53.550;9.918;2023-06-19T17:33:25;4.97;;;4.57;;
6436;SDS011;3251;53.550;9.918;2023-06-19T17:35:52;4.23;;;4.03;;
6436;SDS011;3251;53.550;9.918;2023-06-19T17:38:18;5.10;;;4.80;;
6436;SDS011;3251;53.550;9.918;2023-06-19T17:40:45;5.87;;;4.70;;
6436;SDS011;3251;53.550;9.918;2023-06-19T17:43:11;5.23;;;4.93;;
6436;SDS011;3251;53.550;9.918;2023-06-19T17:45:37;6.37;;;5.60;;
6436;SDS011;3251;53.550;9.918;2023-06-19T17:48:03;5.97;;;5.37;;
6436;SDS011;3251;53.550;9.918;2023-06-19T17:50:30;8.60;;;5.63;;
6436;SDS011;3251;53.550;9.918;2023-06-19T17:52:56;7.03;;;6.40;;
6436;SDS011;3251;53.550;9.918;2023-06-19T17:55:22;8.90;;;6.37;;
6436;SDS011;3251;53.550;9.918;2023-06-19T17:57:48;7.63;;;6.97;;
6436;SDS011;3251;53.550;9.918;2023-06-19T18:00:14;54.67;;;17.50;;
6436;SDS011;3251;53.550;9.918;2023-06-19T18:02:41;144.03;;;30.90;;
6436;SDS011;3251;53.550;9.918;2023-06-19T18:05:07;121.97;;;28.83;;
6436;SDS011;3251;53.550;9.918;2023-06-19T18:07:33;95.10;;;23.93;;
6436;SDS011;3251;53.550;9.918;2023-06-19T18:10:00;207.00;;;46.00;;
6436;SDS011;3251;53.550;9.918;2023-06-19T18:12:26;110.80;;;30.27;;
6436;SDS011;3251;53.550;9.918;2023-06-19T18:14:52;130.30;;;29.57;;
6436;SDS011;3251;53.550;9.918;2023-06-19T18:17:18;77.33;;;22.60;;
6436;SDS011;3251;53.550;9.918;2023-06-19T18:19:44;73.77;;;18.40;;
6436;SDS011;3251;53.550;9.918;2023-06-19T18:22:11;50.07;;;16.60;;
6436;SDS011;3251;53.550;9.918;2023-06-19T18:24:37;43.57;;;13.33;;
6436;SDS011;3251;53.550;9.918;2023-06-19T18:27:03;29.77;;;14.17;;
6436;SDS011;3251;53.550;9.918;2023-06-19T18:29:31;46.17;;;12.80;;
6436;SDS011;3251;53.550;9.918;2023-06-19T18:31:59;19.43;;;9.50;;
6436;SDS011;3251;53.550;9.918;2023-06-19T18:34:25;11.03;;;7.20;;
6436;SDS011;3251;53.550;9.918;2023-06-19T18:36:51;11.03;;;7.70;;
6436;SDS011;3251;53.550;9.918;2023-06-19T18:39:17;11.80;;;7.00;;
6436;SDS011;3251;53.550;9.918;2023-06-19T18:41:44;10.33;;;6.37;;
6436;SDS011;3251;53.550;9.918;2023-06-19T18:44:10;8.93;;;6.70;;
6436;SDS011;3251;53.550;9.918;2023-06-19T18:46:36;12.40;;;7.87;;
6436;SDS011;3251;53.550;9.918;2023-06-19T18:49:02;10.53;;;6.77;;
6436;SDS011;3251;53.550;9.918;2023-06-19T18:51:28;8.40;;;5.87;;
6436;SDS011;3251;53.550;9.918;2023-06-19T18:53:54;8.17;;;7.37;;
6436;SDS011;3251;53.550;9.918;2023-06-19T18:56:21;8.40;;;6.63;;
6436;SDS011;3251;53.550;9.918;2023-06-19T18:58:47;6.93;;;6.40;;
6436;SDS011;3251;53.550;9.918;2023-06-19T19:01:13;6.40;;;5.63;;
6436;SDS011;3251;53.550;9.918;2023-06-19T19:03:42;9.77;;;6.00;;
6436;SDS011;3251;53.550;9.918;2023-06-19T19:06:09;8.57;;;5.83;;
6436;SDS011;3251;53.550;9.918;2023-06-19T19:08:35;8.17;;;7.47;;
6436;SDS011;3251;53.550;9.918;2023-06-19T19:11:01;8.13;;;5.90;;
6436;SDS011;3251;53.550;9.918;2023-06-19T19:13:27;11.10;;;6.57;;
6436;SDS011;3251;53.550;9.918;2023-06-19T19:15:53;8.60;;;7.00;;
6436;SDS011;3251;53.550;9.918;2023-06-19T19:18:19;15.43;;;7.27;;
6436;SDS011;3251;53.550;9.918;2023-06-19T19:20:47;7.20;;;6.50;;
6436;SDS011;3251;53.550;9.918;2023-06-19T19:23:13;12.07;;;10.67;;
6436;SDS011;3251;53.550;9.918;2023-06-19T19:25:39;7.17;;;6.33;;
6436;SDS011;3251;53.550;9.918;2023-06-19T19:28:05;7.23;;;6.60;;
6436;SDS011;3251;53.550;9.918;2023-06-19T19:30:38;13.57;;;7.37;;
6436;SDS011;3251;53.550;9.918;2023-06-19T19:33:04;8.77;;;6.83;;
6436;SDS011;3251;53.550;9.918;2023-06-19T19:35:30;8.90;;;6.40;;
6436;SDS011;3251;53.550;9.918;2023-06-19T19:37:56;12.50;;;6.67;;
6436;SDS011;3251;53.550;9.918;2023-06-19T19:40:22;7.10;;;6.40;;
6436;SDS011;3251;53.550;9.918;2023-06-19T19:42:49;9.00;;;7.43;;
6436;SDS011;3251;53.550;9.918;2023-06-19T19:45:15;8.40;;;7.50;;
6436;SDS011;3251;53.550;9.918;2023-06-19T19:47:41;9.13;;;8.23;;
6436;SDS011;3251;53.550;9.918;2023-06-19T19:50:07;13.30;;;9.03;;
6436;SDS011;3251;53.550;9.918;2023-06-19T19:52:33;14.00;;;10.20;;
6436;SDS011;3251;53.550;9.918;2023-06-19T19:54:59;33.07;;;23.53;;
6436;SDS011;3251;53.550;9.918;2023-06-19T19:57:25;11.43;;;10.20;;
6436;SDS011;3251;53.550;9.918;2023-06-19T19:59:51;11.00;;;8.47;;
6436;SDS011;3251;53.550;9.918;2023-06-19T20:02:18;14.13;;;9.00;;
6436;SDS011;3251;53.550;9.918;2023-06-19T20:04:44;14.13;;;9.70;;
6436;SDS011;3251;53.550;9.918;2023-06-19T20:07:10;15.20;;;9.20;;
6436;SDS011;3251;53.550;9.918;2023-06-19T20:09:36;12.03;;;9.17;;
6436;SDS011;3251;53.550;9.918;2023-06-19T20:12:02;16.60;;;9.37;;
6436;SDS011;3251;53.550;9.918;2023-06-19T20:14:30;14.37;;;10.37;;
6436;SDS011;3251;53.550;9.918;2023-06-19T20:16:56;12.77;;;9.97;;
6436;SDS011;3251;53.550;9.918;2023-06-19T20:19:22;16.20;;;12.53;;
6436;SDS011;3251;53.550;9.918;2023-06-19T20:21:48;12.90;;;9.70;;
6436;SDS011;3251;53.550;9.918;2023-06-19T20:24:14;14.23;;;10.60;;
6436;SDS011;3251;53.550;9.918;2023-06-19T20:26:40;19.97;;;11.70;;
6436;SDS011;3251;53.550;9.918;2023-06-19T20:29:06;16.30;;;10.63;;
6436;SDS011;3251;53.550;9.918;2023-06-19T20:31:33;23.60;;;11.13;;
6436;SDS011;3251;53.550;9.918;2023-06-19T20:33:59;18.07;;;11.80;;
6436;SDS011;3251;53.550;9.918;2023-06-19T20:36:27;20.10;;;12.53;;
6436;SDS011;3251;53.550;9.918;2023-06-19T20:38:54;21.37;;;12.37;;
6436;SDS011;3251;53.550;9.918;2023-06-19T20:41:20;16.93;;;11.87;;
6436;SDS011;3251;53.550;9.918;2023-06-19T20:43:48;15.10;;;11.20;;
6436;SDS011;3251;53.550;9.918;2023-06-19T20:46:15;16.87;;;13.03;;
6436;SDS011;3251;53.550;9.918;2023-06-19T20:48:41;22.80;;;12.77;;
6436;SDS011;3251;53.550;9.918;2023-06-19T20:51:08;18.77;;;13.20;;
6436;SDS011;3251;53.550;9.918;2023-06-19T20:53:34;19.90;;;13.40;;
6436;SDS011;3251;53.550;9.918;2023-06-19T20:56:00;16.30;;;12.17;;
6436;SDS011;3251;53.550;9.918;2023-06-19T20:58:27;17.10;;;11.07;;
6436;SDS011;3251;53.550;9.918;2023-06-19T21:00:53;12.43;;;10.60;;
6436;SDS011;3251;53.550;9.918;2023-06-19T21:03:19;14.30;;;11.07;;
6436;SDS011;3251;53.550;9.918;2023-06-19T21:05:46;14.67;;;11.73;;
6436;SDS011;3251;53.550;9.918;2023-06-19T21:08:13;21.63;;;12.90;;
6436;SDS011;3251;53.550;9.918;2023-06-19T21:10:39;14.20;;;12.80;;
6436;SDS011;3251;53.550;9.918;2023-06-19T21:13:08;25.27;;;11.77;;
6436;SDS011;3251;53.550;9.918;2023-06-19T21:15:37;15.33;;;11.70;;
6436;SDS011;3251;53.550;9.918;2023-06-19T21:18:03;25.00;;;13.50;;
6436;SDS011;3251;53.550;9.918;2023-06-19T21:20:30;16.70;;;10.73;;
6436;SDS011;3251;53.550;9.918;2023-06-19T21:22:56;18.57;;;11.90;;
6436;SDS011;3251;53.550;9.918;2023-06-19T21:25:23;20.53;;;11.13;;
6436;SDS011;3251;53.550;9.918;2023-06-19T21:27:49;13.47;;;11.90;;
6436;SDS011;3251;53.550;9.918;2023-06-19T21:30:15;13.87;;;10.07;;
6436;SDS011;3251;53.550;9.918;2023-06-19T21:32:41;14.67;;;11.50;;
6436;SDS011;3251;53.550;9.918;2023-06-19T21:35:07;11.00;;;9.87;;
6436;SDS011;3251;53.550;9.918;2023-06-19T21:37:34;13.20;;;10.60;;
6436;SDS011;3251;53.550;9.918;2023-06-19T21:40:00;15.07;;;10.10;;
6436;SDS011;3251;53.550;9.918;2023-06-19T21:42:28;13.13;;;10.20;;
6436;SDS011;3251;53.550;9.918;2023-06-19T21:44:54;15.17;;;10.87;;
6436;SDS011;3251;53.550;9.918;2023-06-19T21:47:21;51.13;;;34.20;;
6436;SDS011;3251;53.550;9.918;2023-06-19T21:49:47;22.93;;;14.40;;
6436;SDS011;3251;53.550;9.918;2023-06-19T21:52:13;17.33;;;11.80;;
6436;SDS011;3251;53.550;9.918;2023-06-19T21:54:39;19.37;;;12.10;;
6436;SDS011;3251;53.550;9.918;2023-06-19T21:57:05;13.80;;;11.57;;
6436;SDS011;3251;53.550;9.918;2023-06-19T21:59:32;17.17;;;11.57;;
